METAR AND TAF INFORMATION
METAR FOR EGNX
ADDS - METARS form results

(2227 UTC 28 November 2020)
Data provider http://aviationweather.gov/metar/data/
 
METAR text: EGNX 282220Z 09004KT 2000 BR OVC003 08/07 Q1023
Conditions at: EGNX (EAST MIDLANDS , GB) observed 2220 UTC 28 November 2020
Temperature: 8.0°C (46°F)
Dewpoint: 7.0°C (45°F) [RH = 93%]
Pressure (altimeter): 30.21 inches Hg (1023.0 mb)
Winds: from the E (90 degrees) at 5 MPH (4 knots; 2.1 m/s)
Visibility: 1.24 miles (2.00 km)
Ceiling: 300 feet AGL
Clouds: overcast cloud deck at 300 feet AGL
Weather: BR  (mist)

METAR text: EGNX 282150Z 09006KT 060V140 2000 BR OVC003 08/07 Q1023
Conditions at: EGNX (EAST MIDLANDS , GB) observed 2150 UTC 28 November 2020
Temperature: 8.0°C (46°F)
Dewpoint: 7.0°C (45°F) [RH = 93%]
Pressure (altimeter): 30.21 inches Hg (1023.0 mb)
Winds: from the E (90 degrees) at 7 MPH (6 knots; 3.1 m/s)
Visibility: 1.24 miles (2.00 km)
Ceiling: 300 feet AGL
Clouds: overcast cloud deck at 300 feet AGL
Weather: BR  (mist)

Forecast for: EGNX (EAST MIDLANDS , GB)
Text: TAF EGNX 281653Z 2818/2918 08006KT 2500 BR BKN003
Forecast period: 1800 UTC 28 November 2020 to 1800 UTC 29 November 2020
Forecast type: FROM: standard forecast or significant change
Winds: from the E (80 degrees) at 7 MPH (6 knots; 3.1 m/s)
Visibility: 1.55 miles (2.49 km)
Ceiling: 300 feet AGL
Clouds: broken clouds at 300 feet AGL
Weather: BR  (mist)
Text: TEMPO 2818/2918 6000 NSW BKN008
Forecast period: 1800 UTC 28 November 2020 to 1800 UTC 29 November 2020
Forecast type: TEMPORARY: The following changes expected for less than half the time period
Visibility: 4 miles (6 km)
Ceiling: 800 feet AGL
Clouds: broken clouds at 800 feet AGL
Weather: NSW  (no significant weather)
Text: PROB40 2818/2910 0300 FG BKN001
Forecast period: 1800 UTC 28 November 2020 to 1000 UTC 29 November 2020
Forecast type: PROBABLE: 40 percent likelihood of the following during this time
Visibility: 0.19 miles (0.31 km)
Ceiling: 100 feet AGL
Clouds: broken clouds at 100 feet AGL
Weather: FG  (fog)

 AIRPORT MAP

 RUNWAY INFORMATION
Runway 09 Runway length 9491 ft Runway width 151 ft
Runway elevation 306 ft Runway displaced threshold 590 ft Runway heading 88
Runway 27 Runway length 9491 ft Runway width 151 ft
Runway elevation 282 ft Runway displaced threshold 426 ft Runway heading 268

 AIRPORT FREQUENCIES
Type APP Name APP Frequency 134.175 MHZ
Type ATIS Name ATIS Frequency 128.225 MHZ
Type Fire servi Name Frequency 121.6 MHZ
Type GND Name GND Frequency 121.9 MHZ
Type TWR Name TWR Frequency 124 MHZ

 AIRPORT NEAR NAVIGATION AIDS



Powered by Virtual Airlines Manager [v2.6.2]